Time;durP1;ratioP1;P1;durP2;ratioP2;P2;SDS_P1;SDS_P2;PMS_P1;PMS_P2;Temp;Humidity;BMP_temperature;BMP_pressure;BME280_temperature;BME280_humidity;BME280_pressure;Samples;Min_cycle;Max_cycle;Signal;HPM_P1;HPM_P2
2022/02/18 00:00:46;;;;;;;32.90;6.38;;;;;;;7.93;75.00;99577.22;5053848;28;20060;-65
2022/02/18 00:03:31;;;;;;;25.30;6.13;;;;;;;7.94;75.02;99570.38;5053664;28;20056;-66
2022/02/18 00:06:15;;;;;;;;;;;;;;;7.93;74.91;99569.47;5055277;28;20044;-65
2022/02/18 00:08:59;;;;;;;23.17;6.63;;;;;;;7.92;75.09;99572.03;5054691;28;19923;-65
2022/02/18 00:11:43;;;;;;;31.05;8.80;;;;;;;7.91;75.13;99568.56;5054428;28;20094;-65
2022/02/18 00:14:27;;;;;;;24.10;7.63;;;;;;;7.91;75.05;99570.31;5053065;28;20048;-65
2022/02/18 00:17:10;;;;;;;31.27;7.40;;;;;;;7.90;75.01;99569.41;5053596;28;20064;-66
2022/02/18 00:19:56;;;;;;;28.95;8.95;;;;;;;7.90;75.39;99560.81;5054583;28;20060;-65
2022/02/18 00:22:40;;;;;;;24.33;6.80;;;;;;;7.91;75.01;99550.50;5054734;28;20086;-66
2022/02/18 00:25:24;;;;;;;34.25;8.82;;;;;;;7.89;75.29;99534.13;5054392;28;20079;-66
2022/02/18 00:28:08;;;;;;;49.95;8.80;;;;;;;7.90;75.25;99527.28;5054354;28;20102;-66
2022/02/18 00:30:52;;;;;;;30.63;7.88;;;;;;;7.90;75.59;99522.97;5054126;28;20095;-65
2022/02/18 00:33:36;;;;;;;20.95;6.20;;;;;;;7.88;75.17;99519.50;5054478;28;20051;-65
2022/02/18 00:36:20;;;;;;;22.42;6.30;;;;;;;7.88;75.13;99537.56;5053914;28;20052;-65
2022/02/18 00:39:05;;;;;;;;;;;;;;;7.86;75.14;99534.06;5054659;28;20054;-65
2022/02/18 00:41:49;;;;;;;32.40;9.00;;;;;;;7.85;75.29;99542.69;5053284;28;19939;-65
2022/02/18 00:44:33;;;;;;;30.38;7.57;;;;;;;7.84;75.36;99527.16;5053998;28;20051;-65
2022/02/18 00:47:20;;;;;;;22.92;6.43;;;;;;;7.83;75.27;99536.63;5053910;28;20055;-65
2022/02/18 00:50:05;;;;;;;23.98;6.53;;;;;;;7.83;75.37;99528.00;5053032;28;20075;-66
2022/02/18 00:52:49;;;;;;;26.88;6.88;;;;;;;7.81;75.12;99520.22;5053150;28;20098;-66
2022/02/18 00:55:33;;;;;;;22.30;6.18;;;;;;;7.83;75.25;99513.41;5054192;28;20427;-65
2022/02/18 00:58:20;;;;;;;20.80;6.90;;;;;;;7.82;75.37;99509.06;5054010;28;20047;-65
2022/02/18 01:01:05;;;;;;;25.58;5.13;;;;;;;7.82;75.02;99508.19;5053798;28;20487;-66
2022/02/18 01:03:49;;;;;;;;;;;;;;;7.80;75.30;99497.84;5054428;28;20075;-65
2022/02/18 01:06:34;;;;;;;26.73;6.10;;;;;;;7.81;75.36;99503.88;5053626;28;19923;-66
2022/02/18 01:09:18;;;;;;;25.23;6.57;;;;;;;7.81;75.22;99497.00;5052983;28;20060;-66
2022/02/18 01:12:02;;;;;;;26.00;5.70;;;;;;;7.79;75.38;99496.09;5054129;28;20043;-65
2022/02/18 01:14:46;;;;;;;;;;;;;;;7.78;75.32;99497.81;5054141;28;20415;-65
2022/02/18 01:17:30;;;;;;;18.40;6.43;;;;;;;7.77;75.49;99498.69;5053841;28;19919;-66
2022/02/18 01:20:14;;;;;;;26.67;7.07;;;;;;;7.76;75.57;99491.78;5053726;28;20106;-65
2022/02/18 01:22:58;;;;;;;33.67;7.95;;;;;;;7.76;75.28;99493.47;5053587;28;20446;-66
2022/02/18 01:25:42;;;;;;;24.50;5.78;;;;;;;7.76;75.64;99504.69;5052741;28;20463;-66
2022/02/18 01:28:26;;;;;;;29.20;6.95;;;;;;;7.76;75.46;99499.50;5052639;28;20055;-66
2022/02/18 01:31:11;;;;;;;34.28;8.32;;;;;;;7.77;75.45;99497.78;5053272;28;20562;-65
2022/02/18 01:33:57;;;;;;;24.40;6.85;;;;;;;7.76;75.45;99484.03;5053675;28;20535;-65
2022/02/18 01:36:41;;;;;;;27.98;6.03;;;;;;;7.75;75.56;99482.28;5053614;28;20094;-65
2022/02/18 01:39:25;;;;;;;29.50;7.03;;;;;;;7.76;75.47;99471.13;5053424;28;20063;-65
2022/02/18 01:42:09;;;;;;;25.50;8.05;;;;;;;7.76;75.52;99459.94;5052613;28;20052;-65
2022/02/18 01:44:53;;;;;;;24.50;6.85;;;;;;;7.76;75.44;99472.81;5053317;28;20515;-65
2022/02/18 01:47:37;;;;;;;24.52;6.18;;;;;;;7.76;75.47;99465.97;5052570;28;20048;-66
2022/02/18 01:50:21;;;;;;;;;;;;;;;7.75;75.46;99471.09;5053775;28;20040;-67
2022/02/18 01:53:11;;;;;;;24.52;6.68;;;;;;;7.73;75.14;99462.44;5053178;28;19923;-65
2022/02/18 01:55:55;;;;;;;23.52;6.00;;;;;;;7.73;75.73;99458.19;5052679;28;20055;-65
2022/02/18 01:58:39;;;;;;;;;;;;;;;7.74;75.44;99456.44;5053283;28;20522;-65
2022/02/18 02:01:23;;;;;;;35.88;8.43;;;;;;;7.72;75.42;99466.75;5053127;28;19924;-65
2022/02/18 02:04:07;;;;;;;23.92;7.45;;;;;;;7.72;75.32;99440.06;5053050;28;20562;-65
2022/02/18 02:06:55;;;;;;;24.23;6.20;;;;;;;7.69;75.50;99432.31;5053130;28;20056;-66
2022/02/18 02:09:42;;;;;;;32.90;7.20;;;;;;;7.70;75.57;99416.84;5052124;28;20506;-66
2022/02/18 02:12:27;;;;;;;31.58;6.82;;;;;;;7.71;75.40;99418.59;5053247;28;20052;-66
2022/02/18 02:15:11;;;;;;;;;;;;;;;7.68;75.35;99405.63;5053432;28;20074;-65
2022/02/18 02:18:01;;;;;;;27.35;6.13;;;;;;;7.68;75.56;99400.47;5053146;28;19920;-66
2022/02/18 02:20:45;;;;;;;22.75;5.55;;;;;;;7.67;75.39;99391.00;5053169;28;20055;-65
2022/02/18 02:23:29;;;;;;;28.13;5.60;;;;;;;7.66;75.40;99378.94;5053011;28;20071;-65
2022/02/18 02:26:15;;;;;;;20.42;6.07;;;;;;;7.63;75.78;99365.97;5052284;28;20052;-65
2022/02/18 02:29:02;;;;;;;27.63;6.88;;;;;;;7.64;75.56;99365.13;5052094;28;20396;-65
2022/02/18 02:31:49;;;;;;;23.20;6.43;;;;;;;7.64;75.66;99352.25;5051883;28;20055;-65
2022/02/18 02:34:33;;;;;;;23.85;7.18;;;;;;;7.64;75.46;99341.06;5052151;28;20098;-65
2022/02/18 02:37:17;;;;;;;;;;;;;;;7.62;75.71;99333.31;5052780;28;20075;-65
2022/02/18 02:40:02;;;;;;;25.77;8.15;;;;;;;7.61;75.69;99314.38;5055548;28;19982;-65
2022/02/18 02:42:46;;;;;;;28.05;7.13;;;;;;;7.59;75.41;99323.81;5056634;28;20052;-65
2022/02/18 02:45:31;;;;;;;20.83;5.80;;;;;;;7.62;75.69;99325.59;5055644;28;20132;-66
2022/02/18 02:48:15;;;;;;;22.23;6.70;;;;;;;7.60;75.74;99306.63;5056581;28;20048;-65
2022/02/18 02:50:59;;;;;;;;;;;;;;;7.58;75.38;99311.75;5056276;28;20040;-65
2022/02/18 02:53:43;;;;;;;27.05;6.32;;;;;;;7.56;75.71;99285.06;5056135;28;20334;-65
2022/02/18 02:56:29;;;;;;;23.67;5.50;;;;;;;7.56;75.46;99279.91;5056848;28;20085;-66
2022/02/18 02:59:13;;;;;;;25.95;5.80;;;;;;;7.57;75.83;99279.06;5055116;28;20052;-65
2022/02/18 03:02:00;;;;;;;30.25;6.97;;;;;;;7.57;75.61;99273.91;5055978;28;20499;-65
2022/02/18 03:04:47;;;;;;;25.23;6.38;;;;;;;7.58;75.43;99262.75;5056182;28;20558;-65
2022/02/18 03:07:33;;;;;;;28.20;6.38;;;;;;;7.58;75.59;99236.97;5055931;28;20044;-65
2022/02/18 03:10:18;;;;;;;25.67;5.28;;;;;;;7.58;75.47;99211.19;5055948;28;20043;-65
2022/02/18 03:13:03;;;;;;;22.92;6.30;;;;;;;7.59;75.64;99214.63;5055081;28;20067;-65
2022/02/18 03:15:47;;;;;;;25.42;5.47;;;;;;;7.58;75.53;99213.75;5055602;28;20048;-65
2022/02/18 03:18:31;;;;;;;29.00;6.82;;;;;;;7.58;75.29;99202.59;5055728;28;20094;-65
2022/02/18 03:21:15;;;;;;;36.65;7.15;;;;;;;7.59;75.24;99194.88;5055638;28;20051;-66
2022/02/18 03:23:59;;;;;;;25.05;7.07;;;;;;;7.59;75.49;99199.16;5055444;28;20055;-65
2022/02/18 03:26:43;;;;;;;27.65;5.57;;;;;;;7.58;75.44;99187.13;5055851;28;20071;-66
2022/02/18 03:29:27;;;;;;;24.52;7.80;;;;;;;7.58;75.69;99179.38;5054630;28;20044;-65
2022/02/18 03:32:11;;;;;;;22.60;6.97;;;;;;;7.57;75.55;99169.91;5055732;28;20060;-65
2022/02/18 03:34:56;;;;;;;27.98;6.68;;;;;;;7.57;75.47;99173.34;5055572;28;20040;-65
2022/02/18 03:37:39;;;;;;;22.00;6.13;;;;;;;7.57;75.45;99173.34;5055657;28;20098;-65
2022/02/18 03:40:23;;;;;;;16.92;5.72;;;;;;;7.58;75.11;99169.91;5055052;28;20075;-65
2022/02/18 03:43:08;;;;;;;22.65;6.55;;;;;;;7.56;75.41;99165.59;5055517;28;20408;-65
2022/02/18 03:45:55;;;;;;;26.77;6.75;;;;;;;7.56;75.46;99132.06;5055253;28;20051;-66
2022/02/18 03:48:41;;;;;;;26.35;6.15;;;;;;;7.56;75.34;99109.72;5055381;28;20052;-65
2022/02/18 03:51:26;;;;;;;27.20;5.63;;;;;;;7.55;75.62;99104.56;5054881;28;20048;-65
2022/02/18 03:54:10;;;;;;;22.10;5.50;;;;;;;7.55;75.36;99096.81;5055083;28;20091;-65
2022/02/18 03:56:54;;;;;;;25.77;7.20;;;;;;;7.55;75.38;99109.72;5055188;28;20055;-65
2022/02/18 03:59:38;;;;;;;;;;;;;;;7.54;75.45;99095.97;5055195;28;20052;-65
2022/02/18 04:02:22;;;;;;;24.15;6.22;;;;;;;7.51;75.62;99090.75;5054687;28;19924;-65
2022/02/18 04:05:06;;;;;;;19.63;5.55;;;;;;;7.54;75.12;99084.75;5055076;28;20051;-65
2022/02/18 04:07:50;;;;;;;24.65;6.72;;;;;;;7.52;75.18;99066.72;5054629;28;20396;-65
2022/02/18 04:10:34;;;;;;;29.77;6.72;;;;;;;7.53;75.27;99064.97;5054859;28;20051;-65
2022/02/18 04:13:18;;;;;;;23.23;5.55;;;;;;;7.52;75.29;99064.13;5054621;28;20518;-65
2022/02/18 04:16:03;;;;;;;22.00;6.35;;;;;;;7.53;75.41;99055.56;5055352;28;20063;-65
2022/02/18 04:18:47;;;;;;;;;;;;;;;7.53;75.34;99045.25;5054121;28;20098;-65
2022/02/18 04:21:31;;;;;;;22.25;6.35;;;;;;;7.51;75.09;99041.78;5053446;28;20410;-65
2022/02/18 04:24:15;;;;;;;;;;;;;;;7.50;75.37;99034.88;5055418;28;20047;-65
2022/02/18 04:26:59;;;;;;;27.55;5.95;;;;;;;7.50;75.41;99029.72;5054689;28;19920;-65
2022/02/18 04:29:43;;;;;;;23.23;5.85;;;;;;;7.52;75.67;99032.31;5054176;28;20518;-66
2022/02/18 04:32:27;;;;;;;23.23;6.15;;;;;;;7.52;75.35;99020.31;5054229;28;20098;-65
2022/02/18 04:35:11;;;;;;;27.27;6.97;;;;;;;7.52;75.68;99003.94;5053566;28;20511;-65
2022/02/18 04:37:55;;;;;;;;;;;;;;;7.52;75.43;98989.34;5054952;28;20048;-65
2022/02/18 04:40:39;;;;;;;24.58;7.13;;;;;;;7.52;75.72;98973.88;5054088;28;20011;-65
2022/02/18 04:43:23;;;;;;;19.70;6.28;;;;;;;7.51;75.58;98969.56;5053599;28;20056;-65
2022/02/18 04:46:07;;;;;;;30.45;7.72;;;;;;;7.53;75.43;98960.16;5053323;28;20055;-65
2022/02/18 04:48:52;;;;;;;16.00;5.68;;;;;;;7.53;75.56;98961.84;5054316;28;20095;-66
2022/02/18 04:51:38;;;;;;;24.27;5.40;;;;;;;7.52;75.56;98955.84;5053941;28;20503;-66
2022/02/18 04:54:23;;;;;;;26.27;8.15;;;;;;;7.53;75.73;98955.00;5053954;28;20511;-65
2022/02/18 04:57:07;;;;;;;25.02;5.93;;;;;;;7.55;75.37;98952.41;5054192;28;20071;-65
2022/02/18 04:59:53;;;;;;;20.88;6.45;;;;;;;7.54;75.31;98946.41;5053366;28;20048;-66
2022/02/18 05:02:38;;;;;;;22.70;5.05;;;;;;;7.54;75.41;98935.22;5053606;28;20064;-65
2022/02/18 05:05:21;;;;;;;24.30;6.50;;;;;;;7.55;75.36;98924.06;5053692;28;20048;-65
2022/02/18 05:08:05;;;;;;;18.02;5.97;;;;;;;7.53;75.57;98913.75;5053661;28;20059;-65
2022/02/18 05:10:49;;;;;;;25.45;5.47;;;;;;;7.56;75.60;98897.41;5052617;28;20443;-66
2022/02/18 05:13:33;;;;;;;;;;;;;;;7.56;75.41;98889.69;5053448;28;20095;-65
2022/02/18 05:16:18;;;;;;;24.75;6.47;;;;;;;7.54;75.48;98871.63;5053760;28;19919;-65
2022/02/18 05:19:02;;;;;;;18.80;7.32;;;;;;;7.54;75.56;98874.22;5053668;28;20155;-65
2022/02/18 05:21:46;;;;;;;;;;;;;;;7.54;75.50;98868.19;5054112;28;20051;-65
2022/02/18 05:24:30;;;;;;;28.85;6.15;;;;;;;7.54;75.74;98855.28;5053421;28;19919;-65
2022/02/18 05:27:17;;;;;;;16.45;6.03;;;;;;;7.54;75.75;98853.59;5053491;28;20044;-65
2022/02/18 05:30:01;;;;;;;22.33;6.65;;;;;;;7.55;75.69;98844.13;5052364;28;20099;-65
2022/02/18 05:32:48;;;;;;;26.08;6.57;;;;;;;7.55;75.83;98844.97;5052735;28;20052;-65
2022/02/18 05:35:32;;;;;;;24.50;6.05;;;;;;;7.56;75.69;98836.38;5053432;28;20120;-65
2022/02/18 05:38:18;;;;;;;18.73;6.68;;;;;;;7.56;75.90;98820.06;5052544;28;20106;-65
2022/02/18 05:41:02;;;;;;;29.55;6.95;;;;;;;7.57;75.70;98812.34;5053187;28;20056;-65
2022/02/18 05:43:46;;;;;;;28.88;7.97;;;;;;;7.58;75.82;98801.16;5053395;28;20091;-65
2022/02/18 05:46:30;;;;;;;25.60;5.45;;;;;;;7.59;75.64;98791.75;5053579;28;20079;-64
2022/02/18 05:49:14;;;;;;;29.83;8.43;;;;;;;7.60;75.95;98794.31;5052560;28;20102;-65
2022/02/18 05:51:58;;;;;;;;;;;;;;;7.59;75.84;98771.97;5053526;28;20093;-66
2022/02/18 05:54:42;;;;;;;22.55;7.20;;;;;;;7.61;75.60;98764.25;5053498;28;19923;-65
2022/02/18 05:57:26;;;;;;;25.83;7.90;;;;;;;7.62;75.69;98765.97;5053245;28;20048;-65
2022/02/18 06:00:11;;;;;;;22.88;6.55;;;;;;;7.62;75.72;98759.09;5053358;28;20047;-65
2022/02/18 06:02:55;;;;;;;25.55;6.78;;;;;;;7.64;76.02;98732.47;5052825;28;20083;-66
2022/02/18 06:05:40;;;;;;;25.23;6.63;;;;;;;7.61;76.00;98752.22;5053383;28;20527;-65
2022/02/18 06:08:25;;;;;;;26.85;7.95;;;;;;;7.64;75.66;98753.94;5052082;28;20412;-66
2022/02/18 06:11:09;;;;;;;28.10;7.10;;;;;;;7.64;75.92;98747.94;5053080;28;20126;-65
2022/02/18 06:13:54;;;;;;;30.42;7.38;;;;;;;7.65;75.90;98753.09;5055156;28;20056;-66
2022/02/18 06:16:37;;;;;;;19.75;6.63;;;;;;;7.66;75.96;98741.91;5057152;28;20083;-65
2022/02/18 06:19:24;;;;;;;29.25;6.93;;;;;;;7.68;75.82;98726.47;5056883;28;20056;-65
2022/02/18 06:22:08;;;;;;;22.20;6.50;;;;;;;7.68;75.97;98701.53;5056901;28;20068;-65
2022/02/18 06:24:52;;;;;;;26.15;6.55;;;;;;;7.71;76.17;98708.41;5056743;28;20079;-66
2022/02/18 06:27:36;;;;;;;23.08;6.32;;;;;;;7.70;76.18;98696.41;5056658;28;20434;-65
2022/02/18 06:30:19;;;;;;;19.88;6.63;;;;;;;7.69;76.36;98707.56;5056625;28;20055;-65
2022/02/18 06:33:06;;;;;;;17.23;6.00;;;;;;;7.71;76.29;98693.81;5056803;28;20064;-65
2022/02/18 06:35:50;;;;;;;22.38;5.97;;;;;;;7.72;76.17;98692.97;5056471;28;20094;-65
2022/02/18 06:38:34;;;;;;;15.52;5.45;;;;;;;7.74;76.29;98688.69;5055994;28;20577;-66
2022/02/18 06:41:18;;;;;;;20.63;5.15;;;;;;;7.76;76.37;98681.81;5056756;28;20518;-66
2022/02/18 06:44:05;;;;;;;21.38;6.40;;;;;;;7.77;76.65;98675.81;5056616;28;20047;-65
2022/02/18 06:46:52;;;;;;;19.15;4.28;;;;;;;7.77;76.42;98680.97;5056189;28;20052;-65
2022/02/18 06:49:36;;;;;;;19.58;5.13;;;;;;;7.82;76.53;98677.53;5056477;28;20043;-65
2022/02/18 06:52:20;;;;;;;12.60;4.68;;;;;;;7.81;76.56;98663.78;5056478;28;20126;-66
2022/02/18 06:55:04;;;;;;;10.45;3.70;;;;;;;7.82;76.76;98637.16;5056291;28;20130;-65
2022/02/18 06:57:50;;;;;;;12.90;5.20;;;;;;;7.82;76.89;98644.00;5056019;28;20048;-65
2022/02/18 07:00:34;;;;;;;13.02;4.15;;;;;;;7.82;77.10;98631.97;5056028;28;20124;-65
2022/02/18 07:03:21;;;;;;;10.82;3.75;;;;;;;7.86;76.87;98653.50;5055009;28;20063;-66
2022/02/18 07:06:05;;;;;;;10.65;4.00;;;;;;;7.87;76.91;98637.16;5055089;28;20043;-66
2022/02/18 07:08:50;;;;;;;17.13;3.53;;;;;;;7.87;76.97;98619.94;5055019;28;20114;-66
2022/02/18 07:11:34;;;;;;;11.80;3.75;;;;;;;7.90;77.21;98619.97;5056347;28;20099;-65
2022/02/18 07:14:18;;;;;;;8.57;3.28;;;;;;;7.93;77.04;98619.97;5054964;28;20107;-65
2022/02/18 07:17:04;;;;;;;9.55;4.07;;;;;;;7.93;77.05;98625.16;5055992;28;20392;-65
2022/02/18 07:19:48;;;;;;;9.13;3.50;;;;;;;7.93;77.29;98627.72;5054692;28;20068;-65
2022/02/18 07:22:36;;;;;;;7.00;2.85;;;;;;;7.95;77.28;98614.81;5055975;28;20227;-65
2022/02/18 07:25:20;;;;;;;5.13;2.90;;;;;;;7.97;77.06;98618.28;5055813;28;20091;-66
2022/02/18 07:28:04;;;;;;;6.75;3.38;;;;;;;7.98;77.32;98607.09;5055491;28;20098;-66
2022/02/18 07:30:51;;;;;;;5.68;3.42;;;;;;;7.99;77.45;98597.66;5055249;28;20063;-65
2022/02/18 07:33:36;;;;;;;5.07;2.47;;;;;;;8.01;77.12;98591.63;5054756;28;20420;-66
2022/02/18 07:36:20;;;;;;;6.25;3.00;;;;;;;8.01;77.36;98567.56;5055570;28;20086;-65
2022/02/18 07:39:04;;;;;;;7.55;2.78;;;;;;;8.02;77.51;98562.41;5055651;28;20503;-66
2022/02/18 07:41:51;;;;;;;3.95;2.95;;;;;;;8.04;77.69;98560.69;5055603;28;20048;-66
2022/02/18 07:44:36;;;;;;;9.93;2.90;;;;;;;8.06;77.50;98552.94;5054584;28;20099;-66
2022/02/18 07:47:22;;;;;;;5.22;3.60;;;;;;;8.05;77.72;98535.72;5054450;28;20078;-65
2022/02/18 07:50:07;;;;;;;5.43;3.55;;;;;;;8.08;77.55;98548.66;5055183;28;20132;-65
2022/02/18 07:52:52;;;;;;;3.33;1.98;;;;;;;8.10;77.35;98535.75;5054142;28;20047;-65
2022/02/18 07:55:36;;;;;;;13.88;3.00;;;;;;;8.12;77.38;98528.84;5054565;28;20053;-66
2022/02/18 07:58:20;;;;;;;4.82;2.90;;;;;;;8.12;77.31;98531.44;5054407;28;20071;-66
2022/02/18 08:01:04;;;;;;;;;;;;;;;8.13;77.62;98528.88;5054659;28;20056;-65
2022/02/18 08:03:49;;;;;;;4.80;3.25;;;;;;;8.13;77.63;98510.81;5053909;28;19923;-66
2022/02/18 08:06:33;;;;;;;4.68;2.65;;;;;;;8.16;77.85;98512.53;5054017;28;20067;-65
2022/02/18 08:09:17;;;;;;;3.88;2.42;;;;;;;8.17;77.44;98509.97;5055102;28;20040;-66
2022/02/18 08:12:02;;;;;;;3.53;2.63;;;;;;;8.19;77.30;98491.88;5054668;28;20511;-66
2022/02/18 08:14:49;;;;;;;2.58;2.38;;;;;;;8.20;77.80;98493.63;5053963;28;20519;-65
2022/02/18 08:17:35;;;;;;;4.63;2.17;;;;;;;8.20;77.93;98468.66;5054706;28;20514;-65
2022/02/18 08:20:19;;;;;;;2.38;2.10;;;;;;;8.23;77.77;98472.97;5053526;28;20482;-65
2022/02/18 08:23:03;;;;;;;6.53;2.45;;;;;;;8.23;77.74;98468.66;5054817;28;20464;-66
2022/02/18 08:25:50;;;;;;;4.65;2.65;;;;;;;8.26;77.85;98467.78;5054255;28;20055;-66
2022/02/18 08:28:34;;;;;;;4.25;1.98;;;;;;;8.28;77.87;98476.41;5054561;28;20094;-66
2022/02/18 08:31:18;;;;;;;3.50;2.58;;;;;;;8.29;77.66;98469.53;5054050;28;20564;-66
2022/02/18 08:34:03;;;;;;;;;;;;;;;8.30;77.71;98456.59;5054169;28;20087;-66
2022/02/18 08:36:47;;;;;;;3.28;2.33;;;;;;;8.29;77.87;98462.63;5052988;28;19923;-66
2022/02/18 08:39:31;;;;;;;3.10;2.50;;;;;;;8.32;77.88;98449.72;5054305;28;20130;-66
2022/02/18 08:42:15;;;;;;;3.92;2.47;;;;;;;8.34;77.68;98454.88;5053067;28;20043;-67
2022/02/18 08:44:59;;;;;;;4.25;2.58;;;;;;;8.37;77.62;98424.78;5054265;28;20087;-67
2022/02/18 08:47:46;;;;;;;2.67;2.42;;;;;;;8.39;77.60;98422.19;5053354;28;20040;-66
2022/02/18 08:50:29;;;;;;;2.50;2.30;;;;;;;8.41;77.95;98415.31;5052963;28;20099;-65
2022/02/18 08:53:13;;;;;;;2.35;2.03;;;;;;;8.42;77.71;98409.28;5054178;28;20083;-66
2022/02/18 08:55:59;;;;;;;2.38;2.17;;;;;;;8.45;78.11;98403.25;5054134;28;20056;-65
2022/02/18 08:58:43;;;;;;;1.95;1.77;;;;;;;8.48;78.11;98393.81;5053799;28;20040;-65
2022/02/18 09:01:30;;;;;;;2.13;1.98;;;;;;;8.49;77.82;98382.59;5052775;28;20059;-66
2022/02/18 09:04:14;;;;;;;2.20;2.00;;;;;;;8.51;78.17;98375.72;5054018;28;20087;-65
2022/02/18 09:06:58;;;;;;;3.95;2.10;;;;;;;8.52;78.12;98377.44;5054051;28;20150;-66
2022/02/18 09:09:42;;;;;;;2.42;1.92;;;;;;;8.55;78.08;98375.72;5053888;28;20052;-65
2022/02/18 09:12:26;;;;;;;3.47;2.10;;;;;;;8.56;77.89;98365.41;5052970;28;20059;-66
2022/02/18 09:15:13;;;;;;;;;;;;;;;8.58;77.82;98357.66;5054358;28;20047;-65
2022/02/18 09:17:57;;;;;;;2.15;1.95;;;;;;;8.57;77.97;98349.03;5052618;28;20454;-65
2022/02/18 09:20:41;;;;;;;4.18;2.25;;;;;;;8.58;77.82;98365.38;5052853;28;20566;-67
2022/02/18 09:23:24;;;;;;;2.00;1.75;;;;;;;8.61;77.83;98360.22;5053575;28;20040;-66
2022/02/18 09:26:09;;;;;;;2.75;2.25;;;;;;;8.62;77.90;98346.44;5053487;28;20511;-66
2022/02/18 09:29:00;;;;;;;1.92;1.60;;;;;;;8.64;77.96;98336.97;5053670;28;20044;-65
2022/02/18 09:31:45;;;;;;;3.28;2.30;;;;;;;8.63;77.98;98322.34;5053142;28;20052;-65
2022/02/18 09:34:29;;;;;;;1.98;1.80;;;;;;;8.65;78.17;98336.09;5052809;28;20439;-66
2022/02/18 09:37:15;;;;;;;1.67;1.58;;;;;;;8.66;78.27;98333.50;5052764;28;20136;-66
2022/02/18 09:39:59;;;;;;;1.77;1.67;;;;;;;8.67;78.25;98329.19;5053327;28;20523;-66
2022/02/18 09:42:43;;;;;;;1.80;1.70;;;;;;;8.68;78.30;98341.25;5052555;28;20118;-66
2022/02/18 09:45:28;;;;;;;2.72;2.13;;;;;;;8.68;77.94;98308.53;5052543;28;20091;-66
2022/02/18 09:48:14;;;;;;;2.40;2.00;;;;;;;8.71;78.18;98302.50;5056290;28;20048;-66
2022/02/18 09:50:59;;;;;;;3.20;1.77;;;;;;;8.72;78.00;98306.78;5056326;28;20121;-65
2022/02/18 09:53:43;;;;;;;3.08;1.58;;;;;;;8.73;78.39;98290.44;5056619;28;20400;-66
2022/02/18 09:56:32;;;;;;;1.73;1.63;;;;;;;8.75;78.22;98275.78;5056612;28;20048;-66
2022/02/18 09:59:16;;;;;;;2.63;1.73;;;;;;;8.76;78.31;98272.34;5055961;28;20047;-66
2022/02/18 10:02:02;;;;;;;;;;;;;;;8.77;78.38;98268.03;5056672;28;20052;-66
2022/02/18 10:04:46;;;;;;;2.35;1.63;;;;;;;8.75;78.20;98277.50;5056360;28;19924;-65
2022/02/18 10:07:34;;;;;;;1.88;1.77;;;;;;;8.77;78.30;98274.06;5057179;28;20051;-66
2022/02/18 10:10:18;;;;;;;1.80;1.55;;;;;;;8.78;78.13;98287.81;5056261;28;20103;-66
2022/02/18 10:13:06;;;;;;;;;;;;;;;8.78;78.67;98274.91;5057349;28;20047;-66
2022/02/18 10:15:50;;;;;;;1.73;1.55;;;;;;;8.78;78.27;98273.19;5056433;28;19920;-66
2022/02/18 10:18:54;;;;;;;2.10;1.90;;;;;;;8.82;78.34;98263.69;5056779;28;20440;-66
2022/02/18 10:21:39;;;;;;;2.80;1.98;;;;;;;8.82;78.48;98255.94;5056963;28;20043;-65
2022/02/18 10:24:24;;;;;;;2.05;1.80;;;;;;;8.83;78.55;98275.75;5055993;28;20106;-66
2022/02/18 10:27:07;;;;;;;1.77;1.67;;;;;;;8.83;78.46;98258.50;5056156;28;20051;-65
2022/02/18 10:29:56;;;;;;;1.92;1.83;;;;;;;8.84;78.47;98257.66;5055952;28;20052;-66
2022/02/18 10:32:40;;;;;;;2.78;2.00;;;;;;;8.85;78.54;98261.09;5055908;28;20163;-65
2022/02/18 10:35:34;;;;;;;2.05;1.88;;;;;;;8.86;78.39;98255.06;5056072;28;20663;-66
2022/02/18 10:38:33;;;;;;;2.25;2.03;;;;;;;8.87;78.27;98248.16;5055685;28;20562;-65
2022/02/18 10:41:24;;;;;;;2.15;1.67;;;;;;;8.88;78.54;98242.13;5056512;28;20099;-65
2022/02/18 10:44:16;;;;;;;1.90;1.80;;;;;;;8.88;78.55;98234.38;5056542;28;20110;-65
2022/02/18 10:47:05;;;;;;;1.95;1.73;;;;;;;8.88;78.67;98235.22;5056173;28;20079;-66
2022/02/18 10:49:49;;;;;;;2.40;2.05;;;;;;;8.90;78.60;98228.34;5056210;28;20052;-66
2022/02/18 10:52:33;;;;;;;;;;;;;;;8.89;78.44;98211.13;5056039;28;20044;-66
2022/02/18 10:55:18;;;;;;;2.47;2.28;;;;;;;8.88;78.59;98217.16;5055445;28;19974;-66
2022/02/18 10:58:05;;;;;;;2.25;2.15;;;;;;;8.91;78.67;98200.78;5055725;28;20400;-66
2022/02/18 11:01:14;;;;;;;1.73;1.63;;;;;;;8.90;78.61;98207.66;5056220;28;20067;-66
2022/02/18 11:04:04;;;;;;;1.98;1.85;;;;;;;8.91;78.69;98201.63;5055331;28;20167;-65
2022/02/18 11:06:48;;;;;;;2.67;2.47;;;;;;;8.92;78.66;98190.44;5055386;28;20194;-67
2022/02/18 11:09:32;;;;;;;;;;;;;;;8.92;78.69;98172.34;5055394;28;20048;-66
2022/02/18 11:12:16;;;;;;;3.60;2.20;;;;;;;8.92;78.79;98171.50;5055630;28;20291;-65
2022/02/18 11:15:00;;;;;;;4.25;1.98;;;;;;;8.92;78.58;98158.59;5055705;28;20091;-66
2022/02/18 11:17:44;;;;;;;1.83;1.67;;;;;;;8.93;78.90;98160.31;5056026;28;20132;-66
2022/02/18 11:20:28;;;;;;;2.83;1.70;;;;;;;8.94;78.48;98162.88;5055361;28;20102;-65
2022/02/18 11:23:12;;;;;;;;;;;;;;;8.94;78.69;98162.88;5056078;28;20568;-65
2022/02/18 11:25:56;;;;;;;2.28;2.08;;;;;;;8.94;78.87;98126.69;5055931;28;19943;-66
2022/02/18 11:28:42;;;;;;;2.45;2.25;;;;;;;8.96;78.94;98118.91;5055386;28;20051;-65
2022/02/18 11:31:37;;;;;;;6.57;2.25;;;;;;;8.98;79.12;98106.84;5054397;28;20098;-65
2022/02/18 11:34:40;;;;;;;3.65;2.40;;;;;;;8.98;79.34;98101.69;5055660;28;20400;-66
2022/02/18 11:37:46;;;;;;;2.63;1.98;;;;;;;9.01;78.65;98101.66;5055485;28;20048;-66
2022/02/18 11:40:33;;;;;;;1.98;1.88;;;;;;;9.01;79.21;98099.06;5054521;28;20626;-66
2022/02/18 11:43:27;;;;;;;5.15;2.13;;;;;;;9.02;79.24;98090.44;5055501;28;20052;-66
2022/02/18 11:46:21;;;;;;;2.90;2.17;;;;;;;9.04;79.00;98086.13;5054425;28;20055;-66
2022/02/18 11:49:08;;;;;;;2.05;1.95;;;;;;;9.05;79.08;98064.59;5055270;28;20055;-66
2022/02/18 11:51:52;;;;;;;2.47;2.03;;;;;;;9.06;79.24;98061.13;5053759;28;20052;-65
2022/02/18 11:54:37;;;;;;;2.42;2.10;;;;;;;9.09;79.24;98065.41;5055299;28;20129;-66
2022/02/18 11:57:23;;;;;;;6.00;2.30;;;;;;;9.10;78.88;98067.13;5054313;28;20091;-66
2022/02/18 12:00:08;;;;;;;4.10;2.13;;;;;;;9.11;79.13;98038.66;5053808;28;20144;-66
2022/02/18 12:02:53;;;;;;;3.72;1.98;;;;;;;9.12;79.02;98048.13;5053838;28;20102;-67
2022/02/18 12:06:12;;;;;;;1.92;1.70;;;;;;;9.13;79.31;98028.34;5054240;28;20139;-66
2022/02/18 12:08:57;;;;;;;5.57;1.70;;;;;;;9.14;79.06;98030.06;5054687;28;20075;-66
2022/02/18 12:11:43;;;;;;;1.73;1.60;;;;;;;9.14;79.04;98020.56;5052964;28;20048;-66
2022/02/18 12:14:28;;;;;;;2.03;1.80;;;;;;;9.15;79.02;98008.50;5053893;28;20578;-66
2022/02/18 12:17:13;;;;;;;2.30;1.95;;;;;;;9.16;79.21;98005.03;5054540;28;20530;-66
2022/02/18 12:20:11;;;;;;;2.20;1.77;;;;;;;9.17;79.45;97995.56;5053960;28;20060;-66
2022/02/18 12:22:56;;;;;;;3.45;1.92;;;;;;;9.17;79.08;97993.84;5054776;28;20561;-65
2022/02/18 12:25:42;;;;;;;2.33;2.00;;;;;;;9.18;79.15;97981.75;5053970;28;20170;-65
2022/02/18 12:28:27;;;;;;;3.17;1.95;;;;;;;9.19;79.33;97961.06;5054293;28;20056;-67
2022/02/18 12:31:11;;;;;;;4.13;2.13;;;;;;;9.20;79.03;97977.44;5053315;28;20087;-67
2022/02/18 12:33:55;;;;;;;;;;;;;;;9.19;79.20;97963.63;5054636;28;20094;-66
2022/02/18 12:36:39;;;;;;;4.00;2.53;;;;;;;9.20;79.42;97946.41;5053439;28;19920;-65
2022/02/18 12:39:54;;;;;;;2.65;2.05;;;;;;;9.22;79.57;97948.09;5053458;28;20098;-66
2022/02/18 12:42:38;;;;;;;4.77;2.27;;;;;;;9.24;79.45;97923.09;5053087;28;20056;-66
2022/02/18 12:45:36;;;;;;;2.15;1.95;;;;;;;9.24;79.72;97925.69;5053306;28;20083;-66
2022/02/18 12:48:35;;;;;;;3.33;1.75;;;;;;;9.27;79.52;97914.44;5053385;28;20052;-66
2022/02/18 12:51:25;;;;;;;2.85;2.28;;;;;;;9.29;79.56;97899.75;5053892;28;20056;-66
2022/02/18 12:54:09;;;;;;;2.25;2.00;;;;;;;9.29;79.21;97905.81;5053173;28;20056;-65
2022/02/18 12:56:55;;;;;;;2.63;2.38;;;;;;;9.31;79.16;97897.19;5053835;28;20051;-66
2022/02/18 12:59:44;;;;;;;3.25;2.03;;;;;;;9.32;79.47;97871.28;5052927;28;20479;-66
2022/02/18 13:02:52;;;;;;;6.40;2.05;;;;;;;9.34;79.74;97890.22;5052655;28;20134;-66
2022/02/18 13:05:36;;;;;;;3.53;1.98;;;;;;;9.36;79.69;97864.34;5053046;28;20043;-66
2022/02/18 13:08:24;;;;;;;2.08;1.83;;;;;;;9.37;79.57;97851.41;5053783;28;20056;-65
2022/02/18 13:11:11;;;;;;;2.60;1.80;;;;;;;9.38;79.37;97854.84;5053041;28;20526;-66